Time;durP1;ratioP1;P1;durP2;ratioP2;P2;SDS_P1;SDS_P2;PMS_P1;PMS_P2;Temp;Humidity;BMP_temperature;BMP_pressure;BME280_temperature;BME280_humidity;BME280_pressure;Samples;Min_cycle;Max_cycle;Signal;HPM_P1;HPM_P2
2022/06/19 00:03:49;;;;;;;9.63;6.20;;;;;;;25.28;47.65;95784.09;10365370;28;97010;-70
2022/06/19 00:08:54;;;;;;;11.77;6.40;;;;;;;25.12;48.02;95786.59;10360669;28;97079;-70
2022/06/19 00:13:57;;;;;;;6.97;6.25;;;;;;;25.04;48.04;95781.69;10267517;28;96971;-70
2022/06/19 00:19:00;;;;;;;9.27;6.38;;;;;;;25.01;48.12;95783.00;10272829;28;96855;-70
2022/06/19 00:24:04;;;;;;;9.57;5.95;;;;;;;24.95;48.24;95773.31;10274163;28;98699;-70
2022/06/19 00:29:08;;;;;;;7.40;5.90;;;;;;;24.80;48.59;95776.59;10292113;28;98635;-70
2022/06/19 00:34:10;;;;;;;9.32;5.57;;;;;;;24.67;49.29;95775.09;10273317;28;97031;-70
2022/06/19 00:39:15;;;;;;;8.23;6.30;;;;;;;24.63;48.98;95773.19;10292183;28;98352;-70
2022/06/19 00:44:18;;;;;;;7.28;5.75;;;;;;;24.58;48.87;95768.56;10292554;28;96804;-70
2022/06/19 00:49:26;;;;;;;7.27;6.10;;;;;;;24.51;49.56;95778.63;10293431;28;97114;-70
2022/06/19 00:54:35;;;;;;;11.57;6.00;;;;;;;24.40;49.29;95776.88;10285519;28;98869;-70
2022/06/19 00:59:39;;;;;;;11.38;5.88;;;;;;;24.29;49.93;95778.59;10292928;28;97259;-70
2022/06/19 01:04:47;;;;;;;10.57;6.78;;;;;;;24.18;50.16;95777.66;10274706;28;98617;-70
2022/06/19 01:09:52;;;;;;;8.32;6.25;;;;;;;24.08;50.87;95770.31;10288175;28;96885;-70
2022/06/19 01:15:02;;;;;;;7.53;5.90;;;;;;;24.07;50.85;95768.69;10352426;28;96921;-70
2022/06/19 01:20:09;;;;;;;9.00;5.43;;;;;;;24.00;51.21;95776.03;10378400;28;98057;-70
2022/06/19 01:25:15;;;;;;;7.85;5.78;;;;;;;23.93;51.09;95776.19;10379133;28;97259;-70
2022/06/19 01:30:18;;;;;;;8.73;5.93;;;;;;;23.86;51.04;95774.72;10351679;28;96790;-70
2022/06/19 01:35:23;;;;;;;7.87;5.93;;;;;;;23.78;51.32;95775.16;10355543;28;96787;-70
2022/06/19 01:40:32;;;;;;;12.70;6.28;;;;;;;23.73;51.22;95779.34;10360187;28;96945;-70
2022/06/19 01:45:36;;;;;;;7.50;5.65;;;;;;;23.66;51.39;95773.38;10365028;28;96904;-70
2022/06/19 01:50:39;;;;;;;7.65;5.93;;;;;;;23.67;51.78;95776.84;10373049;28;96914;-70
2022/06/19 01:55:43;;;;;;;9.43;6.07;;;;;;;23.62;51.60;95772.25;10370940;28;97395;-70
2022/06/19 02:00:48;;;;;;;7.90;5.85;;;;;;;23.57;51.85;95764.16;10370600;28;97128;-70
2022/06/19 02:05:51;;;;;;;7.30;5.97;;;;;;;23.51;52.18;95762.44;10365317;28;97138;-70
2022/06/19 02:10:57;;;;;;;9.10;6.33;;;;;;;23.42;52.26;95762.03;10372418;28;96966;-70
2022/06/19 02:16:00;;;;;;;8.63;6.05;;;;;;;23.37;51.92;95759.28;10358726;28;96858;-70
2022/06/19 02:21:03;;;;;;;8.85;5.60;;;;;;;23.29;52.60;95752.50;10362778;28;98007;-70
2022/06/19 02:26:09;;;;;;;7.38;6.28;;;;;;;23.19;52.63;95750.41;10376021;28;97078;-70
2022/06/19 02:31:12;;;;;;;9.20;6.00;;;;;;;23.04;52.99;95738.69;10359113;28;96980;-70
2022/06/19 02:36:39;;;;;;;8.70;5.90;;;;;;;22.94;53.42;95740.13;10369665;28;97562;-70
2022/06/19 02:41:51;;;;;;;8.27;6.20;;;;;;;22.86;53.60;95742.34;10370754;28;96920;-70
2022/06/19 02:46:54;;;;;;;9.63;6.07;;;;;;;22.79;53.19;95739.81;10365964;28;97569;-70
2022/06/19 02:51:57;;;;;;;8.80;6.20;;;;;;;22.76;53.40;95738.44;10363536;28;96849;-70
2022/06/19 02:57:01;;;;;;;7.53;5.57;;;;;;;22.73;53.14;95735.44;10366405;28;98840;-70
2022/06/19 03:02:04;;;;;;;;;;;;;;;22.69;52.67;95737.75;10366271;28;96729;-70
2022/06/19 03:07:08;;;;;;;9.13;5.70;;;;;;;22.59;53.52;95732.22;10363101;28;98035;-70
2022/06/19 03:12:13;;;;;;;7.65;5.82;;;;;;;22.50;53.50;95737.13;10366795;28;99103;-70
2022/06/19 03:17:20;;;;;;;7.35;5.60;;;;;;;22.41;53.50;95743.81;10363854;28;99106;-70
2022/06/19 03:22:29;;;;;;;7.88;6.03;;;;;;;22.27;54.59;95739.81;10360932;28;96952;-70
2022/06/19 03:27:33;;;;;;;7.25;6.43;;;;;;;22.19;54.61;95741.75;10365060;28;98609;-70
2022/06/19 03:32:36;;;;;;;8.48;6.32;;;;;;;21.96;55.64;95736.47;10364627;28;96864;-70
2022/06/19 03:37:39;;;;;;;8.68;6.55;;;;;;;21.76;56.36;95737.63;10372096;28;96867;-70
2022/06/19 03:42:43;;;;;;;9.45;6.97;;;;;;;21.62;56.99;95737.03;10374426;28;98354;-70
2022/06/19 03:47:46;;;;;;;;;;;;;;;21.47;56.73;95726.81;10370369;28;97430;-70
2022/06/19 03:52:49;;;;;;;12.20;6.90;;;;;;;21.33;57.92;95725.41;10359572;28;96848;-70
2022/06/19 03:57:53;;;;;;;7.88;6.95;;;;;;;21.16;58.64;95725.25;10369256;28;96993;-70
2022/06/19 04:02:56;;;;;;;11.75;6.78;;;;;;;21.18;58.23;95730.34;10367410;28;96911;-70
2022/06/19 04:07:59;;;;;;;8.20;7.40;;;;;;;21.10;58.82;95731.44;10363454;28;97184;-70
2022/06/19 04:13:04;;;;;;;7.50;6.80;;;;;;;21.01;59.72;95735.47;10364983;28;97828;-70
2022/06/19 04:18:07;;;;;;;13.75;7.28;;;;;;;21.03;59.58;95733.41;10371466;28;97112;-70
2022/06/19 04:23:11;;;;;;;7.07;6.38;;;;;;;20.99;59.48;95733.03;10371507;28;97739;-70
2022/06/19 04:28:17;;;;;;;;;;;;;;;20.98;58.41;95723.47;10372398;28;99103;-70
2022/06/19 04:33:20;;;;;;;10.43;6.55;;;;;;;20.96;59.27;95741.44;10362357;28;96859;-70
2022/06/19 04:38:23;;;;;;;10.23;7.13;;;;;;;21.02;59.13;95729.94;10371017;28;97993;-70
2022/06/19 04:43:28;;;;;;;7.55;6.15;;;;;;;21.15;59.40;95728.13;10370657;28;96992;-70
2022/06/19 04:48:36;;;;;;;8.38;7.35;;;;;;;21.29;59.38;95729.53;10353674;28;97610;-70
2022/06/19 04:53:39;;;;;;;10.55;6.97;;;;;;;21.34;59.04;95723.56;10365971;28;98590;-70
2022/06/19 04:58:44;;;;;;;8.10;6.72;;;;;;;21.48;58.74;95728.44;10362949;28;96892;-70
2022/06/19 05:03:46;;;;;;;9.60;7.43;;;;;;;21.62;58.59;95730.91;10362699;28;96889;-70
2022/06/19 05:08:49;;;;;;;9.65;7.65;;;;;;;21.72;58.87;95717.84;10363125;28;97641;-70
2022/06/19 05:13:53;;;;;;;8.10;7.15;;;;;;;21.88;57.78;95722.50;10363293;28;100779;-70
2022/06/19 05:18:56;;;;;;;;;;;;;;;22.05;57.03;95721.78;10359854;28;97260;-70
2022/06/19 05:23:59;;;;;;;10.50;7.95;;;;;;;22.15;57.24;95716.69;10369467;28;97604;-70
2022/06/19 05:29:05;;;;;;;11.43;8.68;;;;;;;22.28;56.80;95712.16;10373805;28;97490;-70
2022/06/19 05:34:08;;;;;;;11.60;8.00;;;;;;;22.42;57.16;95716.16;10369656;28;98649;-71
2022/06/19 05:39:18;;;;;;;10.85;8.10;;;;;;;22.55;56.90;95721.25;10370355;28;100675;-70
2022/06/19 05:44:22;;;;;;;11.52;7.95;;;;;;;22.79;56.38;95721.19;10364800;28;96813;-70
2022/06/19 05:49:25;;;;;;;12.43;8.05;;;;;;;22.95;56.20;95715.09;10377859;28;96762;-70
2022/06/19 05:54:29;;;;;;;9.60;7.78;;;;;;;23.14;55.96;95722.88;10373975;28;97244;-70
2022/06/19 05:59:33;;;;;;;9.32;7.97;;;;;;;23.32;55.15;95719.22;10368215;28;97289;-70
2022/06/19 06:04:36;;;;;;;9.30;7.82;;;;;;;23.49;54.77;95714.69;10358620;28;98195;-70
2022/06/19 06:09:39;;;;;;;12.80;7.90;;;;;;;23.69;53.73;95718.72;10366347;28;98581;-70
2022/06/19 06:14:44;;;;;;;11.93;8.30;;;;;;;23.87;52.94;95713.16;10370887;28;97835;-70
2022/06/19 06:19:47;;;;;;;12.35;7.70;;;;;;;24.06;52.27;95718.25;10367764;28;97158;-70
2022/06/19 06:24:50;;;;;;;9.63;7.47;;;;;;;24.22;51.76;95713.91;10368888;28;96892;-70
2022/06/19 06:29:54;;;;;;;10.43;7.20;;;;;;;24.38;51.41;95705.03;10363160;28;98882;-70
2022/06/19 06:34:57;;;;;;;9.77;8.27;;;;;;;24.49;50.72;95711.34;10364547;28;98695;-70
2022/06/19 06:40:00;;;;;;;12.70;7.77;;;;;;;24.65;50.26;95709.66;10360316;28;97015;-70
2022/06/19 06:45:07;;;;;;;9.63;7.63;;;;;;;24.78;50.08;95705.78;10369706;28;97490;-70
2022/06/19 06:50:10;;;;;;;9.13;8.23;;;;;;;24.88;49.95;95704.03;10359072;28;97611;-70
2022/06/19 06:55:14;;;;;;;12.00;8.57;;;;;;;24.97;50.12;95700.94;10366722;28;98468;-70
2022/06/19 07:00:21;;;;;;;10.80;8.15;;;;;;;25.04;49.67;95701.53;10355195;28;97092;-70
2022/06/19 07:05:24;;;;;;;9.48;8.00;;;;;;;25.13;49.11;95716.06;10375229;28;96879;-70
2022/06/19 07:10:28;;;;;;;12.87;8.23;;;;;;;25.25;48.97;95700.69;10371080;28;97547;-70
2022/06/19 07:15:33;;;;;;;12.68;8.05;;;;;;;25.40;48.52;95693.84;10363057;28;97164;-70
2022/06/19 07:20:36;;;;;;;13.23;8.10;;;;;;;25.51;48.00;95690.19;10371378;28;99721;-70
2022/06/19 07:25:39;;;;;;;8.95;8.05;;;;;;;25.53;48.15;95693.41;10366575;28;98472;-70
2022/06/19 07:30:45;;;;;;;10.70;8.50;;;;;;;25.67;47.60;95690.31;10362489;28;98027;-70
2022/06/19 07:35:48;;;;;;;8.88;7.88;;;;;;;25.71;47.93;95694.91;10363483;28;97291;-70
2022/06/19 07:40:50;;;;;;;10.23;7.78;;;;;;;25.74;47.65;95682.91;10367471;28;97024;-70
2022/06/19 07:45:55;;;;;;;10.13;8.13;;;;;;;25.84;47.65;95677.59;10355450;28;97604;-70
2022/06/19 07:50:58;;;;;;;10.45;8.13;;;;;;;26.06;46.97;95676.66;10367788;28;97773;-70
2022/06/19 07:56:01;;;;;;;11.13;7.45;;;;;;;26.25;46.34;95685.06;10367638;28;100192;-70
2022/06/19 08:01:05;;;;;;;12.27;7.88;;;;;;;26.24;46.42;95681.56;10357566;28;97567;-70
2022/06/19 08:06:08;;;;;;;10.13;7.45;;;;;;;26.42;46.02;95672.31;10360904;28;97402;-70
2022/06/19 08:11:11;;;;;;;12.97;7.27;;;;;;;26.59;44.98;95665.91;10364196;28;97241;-70
2022/06/19 08:16:15;;;;;;;9.47;6.37;;;;;;;26.69;44.07;95660.59;10353252;28;97670;-70
2022/06/19 08:21:18;;;;;;;9.05;6.38;;;;;;;26.81;43.86;95663.03;10371716;28;97955;-70
2022/06/19 08:26:21;;;;;;;12.40;6.83;;;;;;;26.87;42.79;95657.41;10371217;28;97133;-71
2022/06/19 08:31:25;;;;;;;12.50;6.27;;;;;;;26.90;41.90;95661.44;10371418;28;98051;-70
2022/06/19 08:36:30;;;;;;;10.98;6.18;;;;;;;27.07;42.32;95645.94;10370774;28;97313;-69
2022/06/19 08:41:43;;;;;;;13.70;6.63;;;;;;;27.34;41.67;95644.09;10367210;28;97074;-69
2022/06/19 08:46:56;;;;;;;10.27;6.28;;;;;;;27.54;40.62;95635.22;10360537;28;97293;-69
2022/06/19 08:52:08;;;;;;;10.95;5.78;;;;;;;27.70;40.04;95636.84;10365143;28;96852;-69
2022/06/19 08:57:19;;;;;;;12.40;6.47;;;;;;;27.84;39.96;95648.63;10373818;28;97102;-69
2022/06/19 09:02:35;;;;;;;10.13;5.70;;;;;;;27.97;38.82;95631.13;10380343;28;96893;-69
2022/06/19 09:07:51;;;;;;;8.90;5.63;;;;;;;28.02;39.31;95633.00;10370020;28;97067;-70
2022/06/19 09:13:10;;;;;;;12.00;6.35;;;;;;;28.14;37.77;95630.00;10374278;28;97004;-70
2022/06/19 09:18:20;;;;;;;11.65;5.93;;;;;;;28.31;37.14;95637.75;10391590;28;97025;-70
2022/06/19 09:23:42;;;;;;;10.65;5.40;;;;;;;28.51;36.66;95628.78;10361025;28;97222;-70
2022/06/19 09:28:51;;;;;;;16.25;5.88;;;;;;;28.70;35.90;95631.66;10373962;28;97038;-70
2022/06/19 09:34:02;;;;;;;16.27;6.05;;;;;;;28.84;35.35;95619.19;10375292;28;97368;-70
2022/06/19 09:39:11;;;;;;;9.38;4.80;;;;;;;28.76;34.86;95630.53;10371510;28;97902;-70
2022/06/19 09:44:20;;;;;;;10.80;5.40;;;;;;;28.87;34.69;95629.38;10374193;28;97969;-70
2022/06/19 09:49:31;;;;;;;12.40;4.82;;;;;;;29.05;34.24;95608.31;10376201;28;97497;-70
2022/06/19 09:54:38;;;;;;;13.95;5.32;;;;;;;29.24;33.66;95609.22;10373198;28;97098;-70
2022/06/19 09:59:50;;;;;;;15.73;4.88;;;;;;;29.42;32.31;95599.69;10375769;28;97249;-70
2022/06/19 10:05:03;;;;;;;12.80;4.90;;;;;;;29.55;31.89;95614.38;10371983;28;98082;-70
2022/06/19 10:10:23;;;;;;;10.43;4.80;;;;;;;29.61;31.49;95613.25;10368770;28;97357;-70
2022/06/19 10:15:29;;;;;;;15.35;4.72;;;;;;;29.64;31.16;95599.19;10370909;28;98728;-70
2022/06/19 10:20:45;;;;;;;14.30;4.95;;;;;;;29.73;31.42;95600.19;10371199;28;97821;-70
2022/06/19 10:26:08;;;;;;;18.20;5.43;;;;;;;29.90;31.35;95588.16;10361138;28;98201;-70
2022/06/19 10:31:22;;;;;;;15.50;5.07;;;;;;;30.05;31.48;95584.50;10365052;28;99777;-70
2022/06/19 10:36:34;;;;;;;15.25;4.85;;;;;;;30.21;30.31;95585.13;10365336;28;96927;-70
2022/06/19 10:42:05;;;;;;;11.70;4.50;;;;;;;30.34;29.83;95576.34;10374420;28;99718;-70
2022/06/19 10:47:17;;;;;;;12.65;5.22;;;;;;;30.38;30.33;95580.06;10375977;28;97251;-70
2022/06/19 10:52:26;;;;;;;10.10;4.40;;;;;;;30.41;30.75;95579.50;10369185;28;97262;-70
2022/06/19 10:57:47;;;;;;;17.35;5.55;;;;;;;30.67;29.90;95574.53;10373018;28;96863;-70
2022/06/19 11:08:23;;;;;;;12.25;4.55;;;;;;;30.91;29.12;95562.91;10361266;28;96904;-70
2022/06/19 11:13:58;;;;;;;15.50;5.10;;;;;;;31.00;29.08;95568.41;10353478;28;98427;-70
2022/06/19 11:19:01;;;;;;;15.82;5.03;;;;;;;31.16;29.16;95569.75;10358339;28;98530;-70
2022/06/19 11:24:07;;;;;;;17.48;5.47;;;;;;;31.38;29.23;95571.03;10357007;28;97846;-69
2022/06/19 11:29:19;;;;;;;12.40;4.60;;;;;;;31.39;29.14;95565.34;10360873;28;99485;-70
2022/06/19 11:39:49;;;;;;;13.57;4.70;;;;;;;31.65;28.82;95554.06;10367742;28;96844;-70
2022/06/19 11:44:53;;;;;;;12.13;4.80;;;;;;;31.81;28.62;95551.88;10356943;28;97640;-70
2022/06/19 11:50:15;;;;;;;9.38;4.35;;;;;;;31.77;29.01;95551.69;10359181;28;98529;-70
2022/06/19 11:55:35;;;;;;;9.60;4.20;;;;;;;31.77;28.56;95540.09;10361499;28;97727;-70
2022/06/19 12:00:38;;;;;;;11.82;4.57;;;;;;;31.93;27.81;95554.91;10361980;28;96818;-70
2022/06/19 12:05:43;;;;;;;;;;;;;;;32.06;28.87;95530.91;10363654;28;97667;-70
2022/06/19 12:10:56;;;;;;;9.15;4.20;;;;;;;32.18;27.36;95542.00;10359632;28;96904;-70
2022/06/19 12:16:02;;;;;;;;;;;;;;;32.19;28.38;95542.78;10362554;28;97721;-71
2022/06/19 12:21:18;;;;;;;13.82;5.13;;;;;;;32.30;28.35;95528.75;10361162;28;97022;-70
2022/06/19 12:26:29;;;;;;;13.73;5.40;;;;;;;32.43;28.04;95534.41;10356977;28;99240;-70
2022/06/19 12:31:37;;;;;;;12.98;4.88;;;;;;;32.47;27.80;95525.38;10365902;28;103401;-70
2022/06/19 12:36:40;;;;;;;13.38;4.40;;;;;;;32.56;26.86;95533.63;10369960;28;97152;-70
2022/06/19 12:41:51;;;;;;;12.60;4.30;;;;;;;32.57;26.75;95518.97;10367816;28;98706;-70
2022/06/19 12:47:06;;;;;;;12.40;4.20;;;;;;;32.83;26.92;95521.09;10364250;28;98639;-70
2022/06/19 12:52:20;;;;;;;12.63;4.43;;;;;;;33.13;27.20;95513.34;10365620;28;98784;-70
2022/06/19 12:57:43;;;;;;;14.98;4.50;;;;;;;33.24;26.34;95503.84;10366394;28;97524;-70
2022/06/19 13:03:04;;;;;;;12.63;4.53;;;;;;;33.14;26.96;95499.50;10357668;28;100420;-71
2022/06/19 13:08:21;;;;;;;13.70;4.35;;;;;;;33.35;26.24;95494.34;10372760;28;97051;-70
2022/06/19 13:13:43;;;;;;;14.13;4.75;;;;;;;33.51;26.38;95477.69;10365064;28;99976;-70
2022/06/19 13:19:04;;;;;;;13.27;4.53;;;;;;;33.65;26.70;95481.91;10364749;28;99188;-70
2022/06/19 13:24:21;;;;;;;15.00;4.75;;;;;;;33.94;26.56;95477.03;10372269;28;96893;-71
2022/06/19 13:29:39;;;;;;;15.65;5.30;;;;;;;34.13;26.17;95480.25;10380571;28;96897;-70
2022/06/19 13:34:53;;;;;;;11.13;4.18;;;;;;;34.21;26.50;95481.38;10372868;28;98333;-70
2022/06/19 13:40:06;;;;;;;13.70;4.25;;;;;;;34.23;26.59;95481.91;10359690;28;97600;-70
2022/06/19 13:45:25;;;;;;;12.48;4.25;;;;;;;34.56;26.05;95484.13;10363364;28;99617;-70
2022/06/19 13:50:34;;;;;;;12.00;4.90;;;;;;;34.35;26.20;95463.06;10370407;28;102501;-70
2022/06/19 13:55:58;;;;;;;9.80;4.45;;;;;;;34.66;26.74;95480.28;10377488;28;97083;-70
2022/06/19 14:01:14;;;;;;;16.67;4.60;;;;;;;34.79;26.55;95473.13;10373318;28;97144;-70
2022/06/19 14:06:24;;;;;;;11.98;4.68;;;;;;;34.98;26.92;95470.84;10363962;28;97199;-70
2022/06/19 14:12:03;;;;;;;12.00;4.47;;;;;;;35.35;26.41;95456.88;10375912;28;97075;-70
2022/06/19 14:17:00;;;;;;;8.55;3.80;;;;;;;36.34;26.01;95453.75;10359767;28;97300;-70
2022/06/19 14:22:17;;;;;;;9.32;4.10;;;;;;;37.62;24.81;95444.13;10366015;28;97028;-70
2022/06/19 14:27:45;;;;;;;10.20;4.18;;;;;;;38.38;23.23;95439.00;10357414;28;96762;-71
2022/06/19 14:32:53;;;;;;;8.77;4.20;;;;;;;38.99;23.20;95437.97;10375766;28;98050;-70
2022/06/19 14:38:15;;;;;;;10.93;4.50;;;;;;;39.64;22.87;95439.59;10370626;28;97106;-71
2022/06/19 14:43:28;;;;;;;13.70;4.40;;;;;;;39.40;21.62;95436.69;10354292;28;98606;-70
2022/06/19 14:48:43;;;;;;;9.48;4.30;;;;;;;39.38;21.83;95436.22;10358143;28;98938;-70
2022/06/19 14:54:00;;;;;;;9.73;4.68;;;;;;;39.10;21.83;95430.03;10364266;28;99789;-70
2022/06/19 14:59:13;;;;;;;9.60;4.00;;;;;;;39.32;22.15;95420.47;10367460;28;98428;-70
2022/06/19 15:04:20;;;;;;;8.27;4.00;;;;;;;39.78;21.63;95443.47;10365062;28;99519;-72
2022/06/19 15:09:27;;;;;;;8.57;3.95;;;;;;;39.95;21.45;95419.59;10358069;28;98675;-71
2022/06/19 15:14:32;;;;;;;8.93;4.13;;;;;;;40.84;20.50;95431.56;10369898;28;101087;-72
2022/06/19 15:19:40;;;;;;;11.32;4.30;;;;;;;41.31;19.88;95426.13;10362785;28;98425;-72
2022/06/19 15:25:21;;;;;;;8.35;3.58;;;;;;;40.71;20.38;95424.69;10378122;28;101096;-72
2022/06/19 15:30:37;;;;;;;9.68;3.83;;;;;;;40.81;20.02;95424.09;10374453;28;96852;-72
2022/06/19 15:36:01;;;;;;;10.73;3.78;;;;;;;40.52;20.34;95428.25;10375643;28;96892;-71
2022/06/19 15:41:58;;;;;;;8.13;3.53;;;;;;;40.88;20.08;95424.22;10362865;28;99205;-72
2022/06/19 15:47:03;;;;;;;10.57;3.65;;;;;;;41.33;19.85;95410.13;10371158;28;96716;-72
2022/06/19 15:52:09;;;;;;;9.75;3.65;;;;;;;41.39;19.22;95411.44;10374476;28;96746;-72
2022/06/19 15:57:19;;;;;;;11.13;3.97;;;;;;;40.89;19.71;95412.09;10368557;28;97419;-72
2022/06/19 16:02:25;;;;;;;7.78;3.50;;;;;;;41.56;19.16;95391.72;10369954;28;97249;-71
2022/06/19 16:07:33;;;;;;;10.93;3.72;;;;;;;42.26;18.21;95383.28;10390825;28;97302;-72
2022/06/19 16:12:36;;;;;;;8.82;3.80;;;;;;;42.00;18.78;95393.91;10361614;28;96986;-72
2022/06/19 16:17:40;;;;;;;7.05;3.45;;;;;;;41.70;18.99;95390.34;10357509;28;97199;-72
2022/06/19 16:22:45;;;;;;;11.18;3.97;;;;;;;41.72;18.85;95382.53;10358967;28;98478;-72
2022/06/19 16:27:50;;;;;;;9.02;3.40;;;;;;;42.06;18.85;95386.16;10361194;28;97661;-72
2022/06/19 16:32:53;;;;;;;6.88;3.45;;;;;;;42.13;18.74;95379.94;10360718;28;97039;-71
2022/06/19 16:48:41;;;;;;;8.00;4.05;;;;;;;43.08;18.20;95389.69;10372561;28;100218;-72
2022/06/19 16:53:49;;;;;;;6.18;3.63;;;;;;;43.21;18.09;95375.66;10356349;28;96703;-72
2022/06/19 16:58:53;;;;;;;9.48;3.65;;;;;;;43.31;18.05;95381.22;10347896;28;101044;-72
2022/06/19 17:03:59;;;;;;;11.35;4.13;;;;;;;43.49;17.85;95386.84;10342543;28;100552;-73
2022/06/19 17:09:06;;;;;;;6.30;3.75;;;;;;;43.44;18.15;95384.44;10371845;28;100214;-72
2022/06/19 17:14:13;;;;;;;8.45;3.50;;;;;;;43.19;18.26;95383.47;10358440;28;96950;-72
2022/06/19 17:19:19;;;;;;;9.63;3.88;;;;;;;42.98;18.23;95393.09;10364146;28;98158;-72
2022/06/19 17:24:26;;;;;;;6.30;3.50;;;;;;;42.73;18.61;95385.38;10371581;28;96916;-72
2022/06/19 17:29:50;;;;;;;6.40;3.35;;;;;;;42.90;18.29;95389.47;10371339;28;97291;-72
2022/06/19 17:35:02;;;;;;;8.10;3.35;;;;;;;42.15;18.59;95394.13;10374848;28;96971;-72
2022/06/19 17:40:08;;;;;;;7.07;4.03;;;;;;;41.63;19.05;95402.78;10344992;28;96832;-72
2022/06/19 17:45:21;;;;;;;8.52;3.30;;;;;;;41.40;19.72;95393.81;10363509;28;97164;-72
2022/06/19 17:50:41;;;;;;;8.60;3.70;;;;;;;40.97;19.79;95387.63;10351011;28;96702;-72
2022/06/19 17:55:45;;;;;;;8.00;3.53;;;;;;;40.48;20.76;95395.31;10344731;28;96661;-72
2022/06/19 18:01:00;;;;;;;6.43;3.40;;;;;;;40.08;20.54;95392.91;10379365;28;96902;-72
2022/06/19 18:06:05;;;;;;;6.25;3.60;;;;;;;39.66;21.39;95391.59;10374016;28;99305;-72
2022/06/19 18:11:12;;;;;;;9.10;3.78;;;;;;;39.13;22.11;95394.66;10367135;28;99273;-72
2022/06/19 18:21:41;;;;;;;5.63;4.05;;;;;;;37.42;23.37;95397.56;10361461;28;100911;-71
2022/06/19 18:26:48;;;;;;;8.40;3.95;;;;;;;36.53;24.47;95395.34;10368536;28;97155;-71
2022/06/19 18:31:55;;;;;;;7.03;4.25;;;;;;;35.80;25.18;95402.00;10365580;28;97561;-72
2022/06/19 18:36:59;;;;;;;7.90;4.00;;;;;;;35.23;25.70;95401.31;10370257;28;98345;-72
2022/06/19 18:42:05;;;;;;;6.38;4.10;;;;;;;34.66;26.26;95404.31;10369390;28;96954;-71
2022/06/19 18:47:09;;;;;;;6.53;3.83;;;;;;;34.19;26.97;95392.28;10366835;28;98710;-71
2022/06/19 18:52:14;;;;;;;6.78;3.90;;;;;;;33.57;27.91;95395.19;10360318;28;97183;-72
2022/06/19 18:57:19;;;;;;;7.32;4.13;;;;;;;32.85;29.35;95395.22;10359612;28;96988;-72
2022/06/19 19:02:22;;;;;;;8.68;4.30;;;;;;;32.10;30.30;95396.81;10365113;28;99228;-71
2022/06/19 19:07:26;;;;;;;8.85;4.45;;;;;;;31.56;31.44;95400.09;10366486;28;97088;-71
2022/06/19 19:12:34;;;;;;;8.30;4.05;;;;;;;31.17;31.46;95409.50;10370551;28;99188;-71
2022/06/19 19:17:37;;;;;;;7.53;4.25;;;;;;;30.87;32.13;95405.47;10361493;28;97484;-71
2022/06/19 19:22:39;;;;;;;7.40;3.83;;;;;;;30.61;32.55;95410.47;10374752;28;96796;-71
2022/06/19 19:27:46;;;;;;;8.63;4.25;;;;;;;30.43;32.93;95412.13;10378301;28;96814;-71
2022/06/19 19:32:49;;;;;;;7.97;4.30;;;;;;;30.15;33.47;95400.41;10368720;28;97223;-71
2022/06/19 19:37:53;;;;;;;7.28;4.20;;;;;;;29.98;33.59;95412.50;10367418;28;97264;-71
2022/06/19 19:42:57;;;;;;;8.40;4.57;;;;;;;29.88;33.82;95413.44;10377022;28;97008;-71
2022/06/19 19:48:05;;;;;;;7.25;4.43;;;;;;;29.69;34.04;95432.28;10371173;28;97020;-70
2022/06/19 19:53:16;;;;;;;9.10;4.43;;;;;;;29.53;34.60;95438.91;10375502;28;97191;-71
2022/06/19 19:58:21;;;;;;;8.68;4.40;;;;;;;29.52;34.34;95440.81;10357371;28;96979;-70
2022/06/19 20:03:24;;;;;;;6.40;4.45;;;;;;;29.46;34.62;95443.84;10381065;28;96728;-70
2022/06/19 20:13:50;;;;;;;5.68;3.88;;;;;;;29.22;34.94;95441.16;10358523;28;98505;-71
2022/06/19 20:18:53;;;;;;;6.50;4.05;;;;;;;29.20;34.62;95438.75;10362567;28;96863;-71
2022/06/19 20:24:00;;;;;;;6.33;4.00;;;;;;;29.18;34.90;95440.94;10361033;28;98458;-71
2022/06/19 20:29:10;;;;;;;6.53;4.28;;;;;;;29.08;35.24;95438.34;10378644;28;99596;-72
2022/06/19 20:34:15;;;;;;;10.25;4.20;;;;;;;29.01;35.26;95440.59;10380125;28;96941;-70
2022/06/19 20:39:22;;;;;;;6.57;4.15;;;;;;;28.88;35.51;95440.13;10362556;28;98570;-71
2022/06/19 20:44:26;;;;;;;10.48;4.15;;;;;;;28.75;35.94;95427.34;10361440;28;97335;-71
2022/06/19 20:49:33;;;;;;;6.00;4.07;;;;;;;28.60;35.99;95429.09;10365122;27;98535;-71
2022/06/19 20:54:36;;;;;;;6.38;3.78;;;;;;;28.46;36.06;95422.75;10368615;28;97090;-71
2022/06/19 20:59:41;;;;;;;5.97;4.28;;;;;;;28.36;36.70;95423.66;10373096;28;97050;-72
2022/06/19 21:04:44;;;;;;;11.35;6.38;;;;;;;28.19;36.85;95412.47;10363880;28;96778;-71
2022/06/19 21:09:47;;;;;;;;;;;;;;;28.08;36.55;95411.72;10382452;28;98009;-71
2022/06/19 21:14:52;;;;;;;19.70;8.10;;;;;;;27.96;37.16;95419.31;10372492;28;97772;-71
2022/06/19 21:19:55;;;;;;;10.65;6.28;;;;;;;27.81;37.22;95429.09;10382357;28;96905;-70
2022/06/19 21:24:58;;;;;;;19.57;9.90;;;;;;;27.72;37.26;95432.59;10374927;28;97988;-71
2022/06/19 21:30:03;;;;;;;28.33;14.50;;;;;;;27.53;37.83;95430.53;10372322;28;101223;-70
2022/06/19 21:35:07;;;;;;;10.90;4.72;;;;;;;27.38;38.07;95431.41;10376667;28;97331;-70
2022/06/19 21:40:12;;;;;;;9.70;5.57;;;;;;;27.23;38.28;95426.06;10372765;28;97348;-71
2022/06/19 21:45:18;;;;;;;9.75;5.65;;;;;;;27.12;38.20;95433.34;10370189;28;97352;-71
2022/06/19 21:50:23;;;;;;;7.05;4.20;;;;;;;27.02;38.37;95450.28;10370641;28;96942;-71
2022/06/19 21:55:30;;;;;;;6.97;4.22;;;;;;;26.96;38.44;95463.97;10366577;28;96905;-72
2022/06/19 22:00:38;;;;;;;5.90;4.03;;;;;;;26.85;38.45;95487.22;10364341;28;97328;-72
2022/06/19 22:05:41;;;;;;;5.88;3.70;;;;;;;26.79;38.60;95483.75;10375858;28;96732;-72
2022/06/19 22:16:13;;;;;;;7.03;3.90;;;;;;;26.64;38.66;95510.56;10370761;28;98193;-73
2022/06/19 22:21:19;;;;;;;7.88;4.10;;;;;;;26.56;38.54;95518.06;10372245;28;96936;-73
2022/06/19 22:26:24;;;;;;;8.23;3.80;;;;;;;26.35;38.87;95516.44;10375666;28;97229;-77
2022/06/19 22:31:30;;;;;;;13.05;9.68;;;;;;;26.22;39.22;95517.69;10372896;28;98050;-77
2022/06/19 22:36:34;;;;;;;5.85;4.20;;;;;;;26.16;38.95;95524.94;10369718;28;97859;-70
2022/06/19 22:41:37;;;;;;;8.20;4.28;;;;;;;25.93;39.57;95546.78;10365969;28;97429;-73
2022/06/19 22:46:41;;;;;;;6.17;4.03;;;;;;;25.73;39.75;95542.16;10371462;28;96847;-78
2022/06/19 22:51:45;;;;;;;8.18;4.47;;;;;;;25.62;39.77;95536.78;10367110;28;97748;-72
2022/06/19 22:56:51;;;;;;;7.40;4.40;;;;;;;25.63;39.56;95540.25;10359769;28;98678;-72
2022/06/19 23:01:55;;;;;;;8.18;4.53;;;;;;;25.58;39.68;95543.72;10365160;28;97895;-72
2022/06/19 23:06:58;;;;;;;8.82;4.15;;;;;;;25.43;40.08;95546.28;10364927;28;100462;-72
2022/06/19 23:12:01;;;;;;;8.32;3.97;;;;;;;25.28;39.91;95528.25;10369889;28;96999;-71
2022/06/19 23:17:15;;;;;;;7.60;4.43;;;;;;;25.21;39.85;95525.81;10375107;28;96754;-72
2022/06/19 23:22:20;;;;;;;5.93;4.00;;;;;;;25.25;39.94;95548.31;10374946;28;96941;-71
2022/06/19 23:27:27;;;;;;;5.95;4.00;;;;;;;25.14;40.23;95551.16;10367002;28;96777;-72
2022/06/19 23:32:31;;;;;;;9.93;3.97;;;;;;;25.03;40.22;95560.97;10366121;28;96820;-72
2022/06/19 23:37:35;;;;;;;5.22;3.80;;;;;;;24.98;40.17;95559.06;10386155;28;98108;-72
2022/06/19 23:42:38;;;;;;;;;;;;;;;24.97;40.06;95572.66;10382218;28;97174;-71
2022/06/19 23:47:44;;;;;;;8.05;4.00;;;;;;;24.88;40.00;95549.09;10367150;28;97820;-71
2022/06/19 23:52:47;;;;;;;9.70;4.28;;;;;;;24.86;40.39;95551.22;10370752;28;96780;-72
2022/06/19 23:57:51;;;;;;;7.73;4.07;;;;;;;24.78;40.62;95559.69;10370393;28;97127;-71
